sensor_id;sensor_type;location;lat;lon;timestamp;P1;durP1;ratioP1;P2;durP2;ratioP2
6149;SDS011;3106;42.670;23.318;2022-12-11T04:49:41;3.03;;;1.30;;
6149;SDS011;3106;42.670;23.318;2022-12-11T04:52:10;1.70;;;1.00;;
6149;SDS011;3106;42.670;23.318;2022-12-11T04:54:38;1.00;;;1.00;;
6149;SDS011;3106;42.670;23.318;2022-12-11T04:57:06;1.33;;;1.00;;
6149;SDS011;3106;42.670;23.318;2022-12-11T04:59:33;1.20;;;0.90;;
6149;SDS011;3106;42.670;23.318;2022-12-11T05:02:00;4.00;;;1.13;;
6149;SDS011;3106;42.670;23.318;2022-12-11T05:04:29;2.20;;;0.90;;
6149;SDS011;3106;42.670;23.318;2022-12-11T05:06:58;5.23;;;1.00;;
6149;SDS011;3106;42.670;23.318;2022-12-11T05:09:26;2.40;;;1.10;;
6149;SDS011;3106;42.670;23.318;2022-12-11T05:11:54;1.83;;;1.03;;
6149;SDS011;3106;42.670;23.318;2022-12-11T05:14:31;1.13;;;1.00;;
6149;SDS011;3106;42.670;23.318;2022-12-11T05:16:58;2.03;;;1.10;;
6149;SDS011;3106;42.670;23.318;2022-12-11T05:19:26;1.63;;;0.90;;
6149;SDS011;3106;42.670;23.318;2022-12-11T05:21:54;2.07;;;1.03;;
6149;SDS011;3106;42.670;23.318;2022-12-11T05:24:22;1.37;;;1.00;;
6149;SDS011;3106;42.670;23.318;2022-12-11T05:26:49;2.30;;;0.90;;
6149;SDS011;3106;42.670;23.318;2022-12-11T05:29:16;3.17;;;1.03;;
6149;SDS011;3106;42.670;23.318;2022-12-11T05:31:49;8.00;;;1.50;;
6149;SDS011;3106;42.670;23.318;2022-12-11T05:34:16;1.50;;;1.40;;
6149;SDS011;3106;42.670;23.318;2022-12-11T05:36:43;1.43;;;1.07;;
6149;SDS011;3106;42.670;23.318;2022-12-11T05:39:10;4.33;;;1.20;;
6149;SDS011;3106;42.670;23.318;2022-12-11T05:41:43;2.53;;;1.23;;
6149;SDS011;3106;42.670;23.318;2022-12-11T05:44:10;1.40;;;1.03;;
6149;SDS011;3106;42.670;23.318;2022-12-11T05:46:38;1.90;;;1.17;;
6149;SDS011;3106;42.670;23.318;2022-12-11T05:49:05;1.00;;;0.90;;
6149;SDS011;3106;42.670;23.318;2022-12-11T05:51:32;1.67;;;1.20;;
6149;SDS011;3106;42.670;23.318;2022-12-11T05:54:01;1.57;;;1.40;;
6149;SDS011;3106;42.670;23.318;2022-12-11T05:56:28;2.10;;;1.00;;
6149;SDS011;3106;42.670;23.318;2022-12-11T05:59:01;2.20;;;1.47;;
6149;SDS011;3106;42.670;23.318;2022-12-11T06:01:30;1.87;;;1.07;;
6149;SDS011;3106;42.670;23.318;2022-12-11T06:04:00;3.33;;;1.47;;
6149;SDS011;3106;42.670;23.318;2022-12-11T06:06:29;2.33;;;1.10;;
6149;SDS011;3106;42.670;23.318;2022-12-11T06:08:57;1.63;;;1.07;;
6149;SDS011;3106;42.670;23.318;2022-12-11T06:11:25;2.03;;;1.00;;
6149;SDS011;3106;42.670;23.318;2022-12-11T06:13:53;1.83;;;1.10;;
6149;SDS011;3106;42.670;23.318;2022-12-11T06:16:21;2.77;;;1.33;;
6149;SDS011;3106;42.670;23.318;2022-12-11T06:18:49;1.30;;;0.93;;
6149;SDS011;3106;42.670;23.318;2022-12-11T06:21:17;1.73;;;1.30;;
6149;SDS011;3106;42.670;23.318;2022-12-11T06:23:48;2.27;;;1.30;;
6149;SDS011;3106;42.670;23.318;2022-12-11T06:26:16;1.10;;;1.10;;
6149;SDS011;3106;42.670;23.318;2022-12-11T06:28:43;3.13;;;1.60;;
6149;SDS011;3106;42.670;23.318;2022-12-11T06:31:11;2.03;;;1.47;;
6149;SDS011;3106;42.670;23.318;2022-12-11T06:33:40;1.30;;;1.20;;
6149;SDS011;3106;42.670;23.318;2022-12-11T06:36:09;1.23;;;1.00;;
6149;SDS011;3106;42.670;23.318;2022-12-11T06:38:37;2.33;;;1.40;;
6149;SDS011;3106;42.670;23.318;2022-12-11T06:41:05;2.17;;;1.33;;
6149;SDS011;3106;42.670;23.318;2022-12-11T06:43:34;3.83;;;1.30;;
6149;SDS011;3106;42.670;23.318;2022-12-11T06:46:03;1.30;;;0.80;;
6149;SDS011;3106;42.670;23.318;2022-12-11T06:48:33;1.10;;;0.80;;
6149;SDS011;3106;42.670;23.318;2022-12-11T06:51:05;3.27;;;1.23;;
6149;SDS011;3106;42.670;23.318;2022-12-11T06:53:40;2.37;;;1.13;;
6149;SDS011;3106;42.670;23.318;2022-12-11T06:56:08;5.50;;;1.00;;
6149;SDS011;3106;42.670;23.318;2022-12-11T06:58:38;0.93;;;0.80;;
6149;SDS011;3106;42.670;23.318;2022-12-11T07:01:12;1.57;;;1.00;;
6149;SDS011;3106;42.670;23.318;2022-12-11T07:03:42;2.10;;;0.80;;
6149;SDS011;3106;42.670;23.318;2022-12-11T07:06:10;0.97;;;0.87;;
6149;SDS011;3106;42.670;23.318;2022-12-11T07:08:38;1.10;;;1.00;;
6149;SDS011;3106;42.670;23.318;2022-12-11T07:11:05;0.80;;;0.80;;
6149;SDS011;3106;42.670;23.318;2022-12-11T07:13:33;1.10;;;1.00;;
6149;SDS011;3106;42.670;23.318;2022-12-11T07:16:02;2.40;;;0.90;;
6149;SDS011;3106;42.670;23.318;2022-12-11T07:18:36;1.30;;;1.20;;
6149;SDS011;3106;42.670;23.318;2022-12-11T07:21:05;1.57;;;1.00;;
6149;SDS011;3106;42.670;23.318;2022-12-11T07:23:34;1.33;;;1.17;;
6149;SDS011;3106;42.670;23.318;2022-12-11T07:26:03;5.97;;;1.27;;
6149;SDS011;3106;42.670;23.318;2022-12-11T07:28:30;1.37;;;1.27;;
6149;SDS011;3106;42.670;23.318;2022-12-11T07:31:03;3.50;;;1.27;;
6149;SDS011;3106;42.670;23.318;2022-12-11T07:33:30;4.43;;;1.17;;
6149;SDS011;3106;42.670;23.318;2022-12-11T07:35:59;4.00;;;1.37;;
6149;SDS011;3106;42.670;23.318;2022-12-11T07:43:48;2.73;;;1.20;;
6149;SDS011;3106;42.670;23.318;2022-12-11T07:46:16;1.70;;;1.17;;
6149;SDS011;3106;42.670;23.318;2022-12-11T07:48:44;3.50;;;1.50;;
6149;SDS011;3106;42.670;23.318;2022-12-11T07:51:19;1.57;;;1.37;;
6149;SDS011;3106;42.670;23.318;2022-12-11T07:53:50;3.07;;;1.20;;
6149;SDS011;3106;42.670;23.318;2022-12-11T07:56:18;5.63;;;1.37;;
6149;SDS011;3106;42.670;23.318;2022-12-11T07:58:49;1.57;;;1.10;;
6149;SDS011;3106;42.670;23.318;2022-12-11T08:01:17;3.30;;;1.10;;
6149;SDS011;3106;42.670;23.318;2022-12-11T08:03:46;2.57;;;1.33;;
6149;SDS011;3106;42.670;23.318;2022-12-11T08:06:13;7.83;;;1.27;;
6149;SDS011;3106;42.670;23.318;2022-12-11T08:08:40;1.40;;;1.20;;
6149;SDS011;3106;42.670;23.318;2022-12-11T08:11:08;3.13;;;1.23;;
6149;SDS011;3106;42.670;23.318;2022-12-11T08:13:38;2.10;;;1.20;;
6149;SDS011;3106;42.670;23.318;2022-12-11T08:16:07;10.03;;;1.30;;
6149;SDS011;3106;42.670;23.318;2022-12-11T08:18:35;2.60;;;1.33;;
6149;SDS011;3106;42.670;23.318;2022-12-11T08:21:04;4.67;;;1.50;;
6149;SDS011;3106;42.670;23.318;2022-12-11T08:23:31;8.23;;;1.57;;
6149;SDS011;3106;42.670;23.318;2022-12-11T08:26:00;1.50;;;1.20;;
6149;SDS011;3106;42.670;23.318;2022-12-11T08:28:27;3.53;;;1.30;;
6149;SDS011;3106;42.670;23.318;2022-12-11T08:30:58;4.93;;;1.20;;
6149;SDS011;3106;42.670;23.318;2022-12-11T08:33:39;3.20;;;1.20;;
6149;SDS011;3106;42.670;23.318;2022-12-11T08:36:11;1.57;;;1.40;;
6149;SDS011;3106;42.670;23.318;2022-12-11T08:38:41;1.70;;;1.60;;
6149;SDS011;3106;42.670;23.318;2022-12-11T08:41:17;1.90;;;1.47;;
6149;SDS011;3106;42.670;23.318;2022-12-11T08:43:48;1.63;;;1.40;;
6149;SDS011;3106;42.670;23.318;2022-12-11T08:46:20;1.10;;;1.00;;
6149;SDS011;3106;42.670;23.318;2022-12-11T08:48:51;6.30;;;1.63;;
6149;SDS011;3106;42.670;23.318;2022-12-11T08:51:20;4.30;;;1.10;;
6149;SDS011;3106;42.670;23.318;2022-12-11T08:54:00;2.13;;;1.47;;
6149;SDS011;3106;42.670;23.318;2022-12-11T08:56:27;6.67;;;2.50;;
6149;SDS011;3106;42.670;23.318;2022-12-11T08:59:04;2.10;;;1.77;;
6149;SDS011;3106;42.670;23.318;2022-12-11T09:01:32;3.80;;;2.23;;
6149;SDS011;3106;42.670;23.318;2022-12-11T09:03:59;2.17;;;1.70;;
6149;SDS011;3106;42.670;23.318;2022-12-11T09:06:27;3.33;;;2.07;;
6149;SDS011;3106;42.670;23.318;2022-12-11T09:08:59;6.57;;;1.80;;
6149;SDS011;3106;42.670;23.318;2022-12-11T09:11:28;4.07;;;1.87;;
6149;SDS011;3106;42.670;23.318;2022-12-11T09:13:57;5.83;;;2.30;;
6149;SDS011;3106;42.670;23.318;2022-12-11T09:16:37;3.27;;;1.90;;
6149;SDS011;3106;42.670;23.318;2022-12-11T09:19:06;7.90;;;1.80;;
6149;SDS011;3106;42.670;23.318;2022-12-11T09:21:36;3.13;;;2.30;;
6149;SDS011;3106;42.670;23.318;2022-12-11T09:24:03;1.93;;;1.83;;
6149;SDS011;3106;42.670;23.318;2022-12-11T09:26:34;5.00;;;1.90;;
6149;SDS011;3106;42.670;23.318;2022-12-11T09:29:05;1.70;;;1.60;;
6149;SDS011;3106;42.670;23.318;2022-12-11T09:31:33;3.60;;;1.90;;
6149;SDS011;3106;42.670;23.318;2022-12-11T09:34:14;2.13;;;1.40;;
6149;SDS011;3106;42.670;23.318;2022-12-11T09:36:41;4.20;;;1.67;;
6149;SDS011;3106;42.670;23.318;2022-12-11T09:39:10;2.60;;;1.43;;
6149;SDS011;3106;42.670;23.318;2022-12-11T15:57:16;3.33;;;2.30;;
6149;SDS011;3106;42.670;23.318;2022-12-11T16:41:52;2.10;;;1.90;;
6149;SDS011;3106;42.670;23.318;2022-12-11T16:44:37;4.33;;;2.30;;
6149;SDS011;3106;42.670;23.318;2022-12-11T17:48:09;5.67;;;4.03;;
6149;SDS011;3106;42.670;23.318;2022-12-11T17:50:39;5.07;;;3.43;;
6149;SDS011;3106;42.670;23.318;2022-12-11T17:53:20;4.10;;;3.00;;
6149;SDS011;3106;42.670;23.318;2022-12-11T17:56:03;4.27;;;2.80;;
6149;SDS011;3106;42.670;23.318;2022-12-11T18:14:21;5.97;;;3.47;;
6149;SDS011;3106;42.670;23.318;2022-12-11T18:45:17;5.30;;;4.00;;
6149;SDS011;3106;42.670;23.318;2022-12-11T18:47:44;6.27;;;3.70;;
6149;SDS011;3106;42.670;23.318;2022-12-11T18:50:11;6.70;;;4.43;;
6149;SDS011;3106;42.670;23.318;2022-12-11T18:55:14;6.63;;;4.23;;
6149;SDS011;3106;42.670;23.318;2022-12-11T18:57:41;13.60;;;5.27;;
6149;SDS011;3106;42.670;23.318;2022-12-11T19:00:29;10.50;;;4.97;;
6149;SDS011;3106;42.670;23.318;2022-12-11T23:28:54;6.30;;;4.40;;
6149;SDS011;3106;42.670;23.318;2022-12-11T23:31:23;8.57;;;4.60;;
6149;SDS011;3106;42.670;23.318;2022-12-11T23:33:51;7.70;;;4.40;;
6149;SDS011;3106;42.670;23.318;2022-12-11T23:36:20;4.90;;;3.30;;
6149;SDS011;3106;42.670;23.318;2022-12-11T23:38:48;7.33;;;4.33;;
6149;SDS011;3106;42.670;23.318;2022-12-11T23:41:15;9.00;;;4.93;;
6149;SDS011;3106;42.670;23.318;2022-12-11T23:43:42;6.40;;;4.50;;
6149;SDS011;3106;42.670;23.318;2022-12-11T23:46:12;6.67;;;4.70;;
6149;SDS011;3106;42.670;23.318;2022-12-11T23:48:41;10.37;;;5.67;;
6149;SDS011;3106;42.670;23.318;2022-12-11T23:51:10;9.40;;;5.17;;
6149;SDS011;3106;42.670;23.318;2022-12-11T23:53:39;10.37;;;6.27;;
6149;SDS011;3106;42.670;23.318;2022-12-11T23:56:08;7.83;;;4.87;;
6149;SDS011;3106;42.670;23.318;2022-12-11T23:58:36;6.40;;;4.40;;
